createdAt,value
2023-05-13T00:00:13.485Z,4.70
2023-05-13T00:00:44.812Z,4.93
2023-05-13T00:01:17.079Z,4.00
2023-05-13T00:01:50.046Z,5.47
2023-05-13T00:02:21.639Z,5.97
2023-05-13T00:02:53.118Z,7.10
2023-05-13T00:03:24.692Z,7.18
2023-05-13T00:03:56.141Z,5.50
2023-05-13T00:04:27.534Z,4.45
2023-05-13T00:04:58.905Z,6.97
2023-05-13T00:05:30.246Z,7.97
2023-05-13T00:06:01.648Z,4.47
2023-05-13T00:06:33.085Z,4.63
2023-05-13T00:07:04.568Z,5.30
2023-05-13T00:07:35.916Z,5.35
2023-05-13T00:08:07.455Z,9.93
2023-05-13T00:08:38.981Z,4.40
2023-05-13T00:09:10.334Z,4.40
2023-05-13T00:09:41.669Z,6.38
2023-05-13T00:10:13.046Z,5.03
2023-05-13T00:10:44.401Z,6.18
2023-05-13T00:11:15.762Z,6.57
2023-05-13T00:11:47.095Z,6.22
2023-05-13T00:12:18.456Z,6.90
2023-05-13T00:12:49.797Z,6.80
2023-05-13T00:13:21.195Z,5.53
2023-05-13T00:13:52.767Z,3.83
2023-05-13T00:14:24.153Z,6.00
2023-05-13T00:14:55.499Z,4.63
2023-05-13T00:15:27.043Z,6.00
2023-05-13T00:15:58.552Z,8.13
2023-05-13T00:16:30.019Z,4.03
2023-05-13T00:17:01.391Z,4.60
2023-05-13T00:17:32.844Z,6.88
2023-05-13T00:18:04.328Z,4.10
2023-05-13T00:18:35.749Z,5.10
2023-05-13T00:19:07.203Z,7.43
2023-05-13T00:19:38.599Z,3.45
2023-05-13T00:20:10.012Z,4.43
2023-05-13T00:20:41.371Z,3.95
2023-05-13T00:21:12.718Z,7.22
2023-05-13T00:21:44.080Z,4.88
2023-05-13T00:22:15.424Z,3.00
2023-05-13T00:22:46.784Z,5.67
2023-05-13T00:23:18.142Z,4.50
2023-05-13T00:23:49.664Z,5.55
2023-05-13T00:24:21.037Z,5.35
2023-05-13T00:24:52.435Z,8.48
2023-05-13T00:25:23.885Z,4.47
2023-05-13T00:25:55.245Z,5.63
2023-05-13T00:26:26.651Z,6.72
2023-05-13T00:26:58.056Z,8.02
2023-05-13T00:27:29.444Z,4.70
2023-05-13T00:28:00.825Z,6.28
2023-05-13T00:28:32.217Z,6.07
2023-05-13T00:29:03.590Z,5.40
2023-05-13T00:29:34.943Z,4.97
2023-05-13T00:30:06.644Z,6.88
2023-05-13T00:30:37.975Z,6.03
2023-05-13T00:31:09.490Z,5.75
2023-05-13T00:31:40.909Z,3.88
2023-05-13T00:32:12.304Z,5.82
2023-05-13T00:32:43.689Z,10.63
2023-05-13T00:33:15.092Z,6.95
2023-05-13T00:33:46.458Z,7.07
2023-05-13T00:34:17.919Z,8.55
2023-05-13T00:34:51.044Z,4.75
2023-05-13T00:35:22.399Z,7.40
2023-05-13T00:35:53.755Z,5.72
2023-05-13T00:36:25.104Z,5.55
2023-05-13T00:36:56.464Z,7.80
2023-05-13T00:37:27.790Z,5.85
2023-05-13T00:37:59.137Z,6.63
2023-05-13T00:38:30.479Z,4.05
2023-05-13T00:39:01.857Z,3.97
2023-05-13T00:39:33.219Z,3.88
2023-05-13T00:40:04.832Z,4.90
2023-05-13T00:40:37.740Z,5.78
2023-05-13T00:41:09.091Z,4.93
2023-05-13T00:41:40.461Z,7.20
2023-05-13T00:42:11.808Z,4.72
2023-05-13T00:42:43.150Z,6.07
2023-05-13T00:43:14.494Z,7.25
2023-05-13T00:43:45.828Z,5.53
2023-05-13T00:44:17.194Z,5.15
2023-05-13T00:44:48.542Z,5.10
2023-05-13T00:45:19.930Z,5.20
2023-05-13T00:45:51.334Z,4.90
2023-05-13T00:46:23.209Z,4.22
2023-05-13T00:46:54.630Z,3.88
2023-05-13T00:47:26.026Z,7.05
2023-05-13T00:47:58.325Z,5.20
2023-05-13T00:48:29.726Z,5.80
2023-05-13T00:49:01.077Z,4.65
2023-05-13T00:49:32.929Z,5.60
2023-05-13T00:50:04.562Z,6.53
2023-05-13T00:50:35.941Z,8.02
2023-05-13T00:51:07.693Z,5.60
2023-05-13T00:51:39.071Z,5.72
2023-05-13T00:52:10.440Z,4.63
2023-05-13T00:52:42.152Z,6.65
2023-05-13T00:53:13.509Z,6.35
2023-05-13T00:53:45.286Z,8.52
2023-05-13T00:54:16.658Z,6.40
2023-05-13T00:54:48.050Z,6.13
2023-05-13T00:55:19.415Z,5.70
2023-05-13T00:55:50.744Z,10.60
2023-05-13T00:56:22.154Z,7.25
2023-05-13T00:56:53.951Z,9.23
2023-05-13T00:57:25.362Z,6.63
2023-05-13T00:57:56.680Z,4.45
2023-05-13T00:58:28.039Z,6.20
2023-05-13T00:58:59.395Z,5.88
2023-05-13T00:59:31.180Z,5.15
2023-05-13T01:00:03.568Z,6.78
2023-05-13T01:00:37.122Z,3.63
2023-05-13T01:01:11.602Z,3.28
2023-05-13T01:01:55.904Z,4.07
2023-05-13T01:02:30.875Z,3.75
2023-05-13T01:03:02.393Z,5.07
2023-05-13T01:03:36.696Z,6.53
2023-05-13T01:04:08.080Z,5.60
2023-05-13T01:04:54.765Z,10.13
2023-05-13T01:05:39.584Z,8.52
2023-05-13T01:06:13.702Z,6.82
2023-05-13T01:06:50.870Z,4.97
2023-05-13T01:07:28.440Z,3.75
2023-05-13T01:08:21.522Z,5.40
2023-05-13T01:09:06.906Z,5.18
2023-05-13T01:09:40.946Z,5.40
2023-05-13T01:10:35.615Z,5.28
2023-05-13T01:11:12.896Z,7.80
2023-05-13T01:11:44.623Z,10.83
2023-05-13T01:12:26.888Z,5.57
2023-05-13T01:12:59.655Z,7.35
2023-05-13T01:13:36.355Z,5.97
2023-05-13T01:14:16.631Z,10.50
2023-05-13T01:15:17.150Z,6.63
2023-05-13T01:16:01.373Z,5.40
2023-05-13T01:16:49.292Z,8.93
2023-05-13T01:17:24.439Z,7.50
2023-05-13T01:17:55.782Z,8.45
2023-05-13T01:18:36.969Z,7.25
2023-05-13T01:19:25.210Z,8.38
2023-05-13T01:19:57.664Z,8.07
2023-05-13T01:20:30.305Z,6.38
2023-05-13T01:21:02.118Z,6.25
2023-05-13T01:21:37.732Z,8.32
2023-05-13T01:22:09.102Z,7.55
2023-05-13T01:22:40.460Z,7.40
2023-05-13T01:23:12.133Z,7.93
2023-05-13T01:23:43.488Z,10.02
2023-05-13T01:24:14.950Z,5.90
2023-05-13T01:24:46.392Z,8.85
2023-05-13T01:25:18.009Z,9.55
2023-05-13T01:25:49.347Z,10.75
2023-05-13T01:26:21.037Z,7.88
2023-05-13T01:26:52.464Z,9.05
2023-05-13T01:27:23.830Z,8.00
2023-05-13T01:27:55.489Z,8.55
2023-05-13T01:28:26.976Z,8.57
2023-05-13T01:28:58.312Z,8.40
2023-05-13T01:29:30.247Z,9.23
2023-05-13T01:30:02.396Z,8.27
2023-05-13T01:30:33.803Z,7.37
2023-05-13T01:31:05.753Z,8.48
2023-05-13T01:31:37.608Z,8.05
2023-05-13T01:32:10.148Z,6.78
2023-05-13T01:32:41.721Z,7.65
2023-05-13T01:33:14.000Z,12.20
2023-05-13T01:33:45.796Z,8.98
2023-05-13T01:34:18.118Z,6.13
2023-05-13T01:34:51.233Z,9.47
2023-05-13T01:35:23.225Z,8.57
2023-05-13T01:35:54.997Z,8.35
2023-05-13T01:36:26.413Z,9.73
2023-05-13T01:36:58.886Z,7.13
2023-05-13T01:37:30.310Z,9.38
2023-05-13T01:38:02.465Z,8.85
2023-05-13T01:38:35.143Z,8.10
2023-05-13T01:39:07.366Z,12.18
2023-05-13T01:39:38.759Z,11.02
2023-05-13T01:40:24.113Z,8.35
2023-05-13T01:40:56.283Z,8.32
2023-05-13T01:41:27.622Z,7.90
2023-05-13T01:41:58.998Z,8.88
2023-05-13T01:42:30.351Z,8.55
2023-05-13T01:43:01.789Z,7.67
2023-05-13T01:43:33.173Z,9.15
2023-05-13T01:44:04.552Z,7.32
2023-05-13T01:44:35.892Z,7.45
2023-05-13T01:45:07.464Z,10.52
2023-05-13T01:45:38.781Z,8.85
2023-05-13T01:46:13.373Z,7.22
2023-05-13T01:46:45.201Z,9.32
2023-05-13T01:47:16.599Z,9.52
2023-05-13T01:47:47.967Z,9.25
2023-05-13T01:48:19.377Z,6.72
2023-05-13T01:48:50.932Z,9.23
2023-05-13T01:49:22.304Z,9.88
2023-05-13T01:49:53.639Z,6.05
2023-05-13T01:50:25.323Z,8.23
2023-05-13T01:50:56.759Z,8.48
2023-05-13T01:51:28.138Z,8.55
2023-05-13T01:51:59.476Z,7.47
2023-05-13T01:52:30.829Z,9.82
2023-05-13T01:53:02.205Z,7.70
2023-05-13T01:53:33.599Z,8.38
2023-05-13T01:54:05.233Z,6.90
2023-05-13T01:54:36.632Z,10.50
2023-05-13T01:55:08.168Z,8.45
2023-05-13T01:55:39.501Z,9.13
2023-05-13T01:56:10.846Z,7.97
2023-05-13T01:56:42.181Z,7.43
2023-05-13T01:57:13.517Z,9.75
2023-05-13T01:57:44.881Z,8.15
2023-05-13T01:58:16.527Z,9.88
2023-05-13T01:58:47.886Z,8.43
2023-05-13T01:59:19.272Z,8.20
2023-05-13T01:59:50.664Z,9.85
2023-05-13T02:00:22.387Z,7.45
2023-05-13T02:00:53.992Z,7.95
2023-05-13T02:01:25.367Z,7.97
2023-05-13T02:01:56.851Z,9.02
2023-05-13T02:02:28.236Z,7.65
2023-05-13T02:02:59.711Z,6.83
2023-05-13T02:03:31.250Z,7.40
2023-05-13T02:04:02.873Z,10.98
2023-05-13T02:04:34.286Z,9.85
2023-05-13T02:05:05.704Z,8.88
2023-05-13T02:05:37.047Z,8.27
2023-05-13T02:06:08.466Z,8.40
2023-05-13T02:06:39.852Z,10.02
2023-05-13T02:07:11.182Z,8.23
2023-05-13T02:07:42.539Z,7.93
2023-05-13T02:08:13.892Z,7.70
2023-05-13T02:08:45.265Z,8.48
2023-05-13T02:09:16.674Z,8.55
2023-05-13T02:09:48.053Z,10.23
2023-05-13T02:10:19.541Z,9.65
2023-05-13T02:11:00.600Z,8.65
2023-05-13T02:11:32.007Z,8.60
2023-05-13T02:12:03.480Z,7.70
2023-05-13T02:12:34.874Z,9.85
2023-05-13T02:13:06.202Z,5.78
2023-05-13T02:13:37.545Z,9.55
2023-05-13T02:14:08.951Z,7.53
2023-05-13T02:14:40.421Z,8.80
2023-05-13T02:15:11.803Z,9.45
2023-05-13T02:15:43.162Z,7.50
2023-05-13T02:16:14.948Z,9.13
2023-05-13T02:16:46.369Z,9.98
2023-05-13T02:17:17.719Z,8.73
2023-05-13T02:17:49.072Z,6.70
2023-05-13T02:18:20.611Z,8.85
2023-05-13T02:18:51.931Z,9.80
2023-05-13T02:19:23.291Z,8.32
2023-05-13T02:19:54.645Z,10.52
2023-05-13T02:20:25.991Z,9.68
2023-05-13T02:20:57.321Z,10.25
2023-05-13T02:21:28.694Z,7.47
2023-05-13T02:22:00.026Z,9.30
2023-05-13T02:22:31.385Z,9.40
2023-05-13T02:23:02.725Z,7.97
2023-05-13T02:23:34.084Z,9.45
2023-05-13T02:24:05.586Z,12.10
2023-05-13T02:24:36.917Z,10.80
2023-05-13T02:25:08.448Z,9.63
2023-05-13T02:25:39.772Z,9.48
2023-05-13T02:26:11.146Z,8.15
2023-05-13T02:26:42.514Z,9.88
2023-05-13T02:27:13.836Z,7.20
2023-05-13T02:27:45.177Z,9.40
2023-05-13T02:28:16.549Z,7.93
2023-05-13T02:28:47.955Z,9.68
2023-05-13T02:29:19.334Z,8.60
2023-05-13T02:29:50.696Z,8.75
2023-05-13T02:30:22.436Z,10.93
2023-05-13T02:30:54.018Z,10.82
2023-05-13T02:31:25.480Z,11.68
2023-05-13T02:31:56.936Z,7.35
2023-05-13T02:32:28.417Z,9.23
2023-05-13T02:33:00.944Z,9.35
2023-05-13T02:33:32.368Z,7.38
2023-05-13T02:34:03.687Z,9.18
2023-05-13T02:34:35.033Z,11.65
2023-05-13T02:35:06.467Z,12.63
2023-05-13T02:35:37.917Z,8.80
2023-05-13T02:36:09.314Z,10.70
2023-05-13T02:36:40.664Z,10.90
2023-05-13T02:37:12.042Z,11.75
2023-05-13T02:37:43.361Z,9.27
2023-05-13T02:38:14.836Z,10.93
2023-05-13T02:38:46.235Z,9.48
2023-05-13T02:39:17.570Z,11.10
2023-05-13T02:39:48.916Z,10.00
2023-05-13T02:40:20.388Z,9.80
2023-05-13T02:40:52.225Z,8.05
2023-05-13T02:41:23.545Z,11.48
2023-05-13T02:41:54.899Z,12.35
2023-05-13T02:42:26.271Z,12.85
2023-05-13T02:42:57.630Z,9.70
2023-05-13T02:43:28.975Z,8.15
2023-05-13T02:44:00.363Z,9.13
2023-05-13T02:44:31.746Z,9.35
2023-05-13T02:45:03.104Z,10.25
2023-05-13T02:45:34.449Z,14.27
2023-05-13T02:46:05.881Z,8.15
2023-05-13T02:46:37.273Z,11.90
2023-05-13T02:47:08.599Z,8.82
2023-05-13T02:47:40.010Z,7.88
2023-05-13T02:48:11.389Z,7.88
2023-05-13T02:48:42.759Z,8.48
2023-05-13T02:49:14.174Z,8.40
2023-05-13T02:49:45.574Z,8.80
2023-05-13T02:50:16.906Z,8.23
2023-05-13T02:50:48.241Z,11.40
2023-05-13T02:51:19.619Z,10.32
2023-05-13T02:51:50.926Z,9.23
2023-05-13T02:52:22.447Z,9.33
2023-05-13T02:52:53.779Z,9.35
2023-05-13T02:53:25.136Z,9.98
2023-05-13T02:53:56.575Z,8.70
2023-05-13T02:54:28.312Z,9.82
2023-05-13T02:54:59.663Z,8.40
2023-05-13T02:55:31.066Z,8.27
2023-05-13T02:56:02.521Z,9.73
2023-05-13T02:56:33.881Z,9.15
2023-05-13T02:57:05.236Z,10.13
2023-05-13T02:57:36.619Z,8.75
2023-05-13T02:58:09.012Z,10.90
2023-05-13T02:58:40.359Z,8.88
2023-05-13T02:59:11.734Z,9.30
2023-05-13T02:59:43.063Z,8.43
2023-05-13T03:00:14.727Z,9.50
2023-05-13T03:00:46.059Z,7.93
2023-05-13T03:01:17.451Z,9.32
2023-05-13T03:01:49.019Z,10.18
2023-05-13T03:02:20.484Z,9.32
2023-05-13T03:02:52.023Z,9.95
2023-05-13T03:03:23.516Z,10.68
2023-05-13T03:03:55.022Z,13.30
2023-05-13T03:04:26.348Z,10.70
2023-05-13T03:04:57.760Z,11.10
2023-05-13T03:05:29.979Z,10.73
2023-05-13T03:06:01.451Z,10.63
2023-05-13T03:06:32.845Z,12.65
2023-05-13T03:07:04.321Z,16.02
2023-05-13T03:07:35.687Z,14.35
2023-05-13T03:08:07.073Z,9.10
2023-05-13T03:08:38.423Z,8.52
2023-05-13T03:09:09.825Z,13.40
2023-05-13T03:09:41.177Z,9.93
2023-05-13T03:10:12.532Z,12.53
2023-05-13T03:10:43.871Z,13.82
2023-05-13T03:11:15.223Z,12.90
2023-05-13T03:11:46.611Z,10.23
2023-05-13T03:12:17.994Z,11.32
2023-05-13T03:12:49.704Z,13.23
2023-05-13T03:13:21.051Z,11.73
2023-05-13T03:13:52.414Z,13.13
2023-05-13T03:14:23.773Z,11.02
2023-05-13T03:14:55.109Z,10.40
2023-05-13T03:15:26.485Z,12.00
2023-05-13T03:15:57.857Z,10.17
2023-05-13T03:16:29.295Z,8.48
2023-05-13T03:17:00.731Z,10.48
2023-05-13T03:17:32.176Z,7.93
2023-05-13T03:18:03.688Z,11.05
2023-05-13T03:18:35.385Z,11.55
2023-05-13T03:19:06.775Z,8.90
2023-05-13T03:19:38.572Z,9.45
2023-05-13T03:20:10.417Z,11.02
2023-05-13T03:20:41.758Z,10.57
2023-05-13T03:21:13.111Z,12.18
2023-05-13T03:21:44.454Z,13.20
2023-05-13T03:22:15.849Z,9.93
2023-05-13T03:22:47.248Z,11.27
2023-05-13T03:23:18.601Z,11.70
2023-05-13T03:23:49.964Z,10.30
2023-05-13T03:24:21.408Z,8.93
2023-05-13T03:24:52.751Z,11.75
2023-05-13T03:25:24.086Z,12.43
2023-05-13T03:25:55.420Z,11.75
2023-05-13T03:26:26.787Z,12.75
2023-05-13T03:26:58.398Z,14.32
2023-05-13T03:27:29.748Z,8.80
2023-05-13T03:28:02.728Z,9.25
2023-05-13T03:28:34.062Z,10.70
2023-05-13T03:29:05.415Z,8.48
2023-05-13T03:29:36.773Z,11.43
2023-05-13T03:30:08.320Z,8.98
2023-05-13T03:30:39.687Z,9.33
2023-05-13T03:31:11.136Z,10.07
2023-05-13T03:31:42.598Z,11.13
2023-05-13T03:32:14.026Z,10.70
2023-05-13T03:32:45.416Z,8.88
2023-05-13T03:33:16.787Z,8.80
2023-05-13T03:33:48.140Z,12.63
2023-05-13T03:34:19.467Z,8.45
2023-05-13T03:34:51.002Z,8.70
2023-05-13T03:35:22.366Z,12.48
2023-05-13T03:35:53.712Z,12.27
2023-05-13T03:36:25.052Z,10.32
2023-05-13T03:36:56.403Z,8.90
2023-05-13T03:37:27.775Z,8.90
2023-05-13T03:37:59.092Z,11.38
2023-05-13T03:38:30.518Z,10.20
2023-05-13T03:39:01.848Z,12.30
2023-05-13T03:39:33.213Z,15.15
2023-05-13T03:40:04.784Z,10.90
2023-05-13T03:40:36.172Z,11.60
2023-05-13T03:41:07.551Z,11.13
2023-05-13T03:41:38.917Z,11.02
2023-05-13T03:42:10.279Z,10.73
2023-05-13T03:42:41.618Z,10.20
2023-05-13T03:43:12.970Z,9.90
2023-05-13T03:43:44.562Z,14.15
2023-05-13T03:44:15.914Z,12.00
2023-05-13T03:44:47.261Z,9.50
2023-05-13T03:45:18.751Z,11.50
2023-05-13T03:45:50.509Z,11.07
2023-05-13T03:46:21.985Z,12.48
2023-05-13T03:46:53.472Z,11.35
2023-05-13T03:47:24.980Z,11.63
2023-05-13T03:47:56.493Z,12.95
2023-05-13T03:48:27.853Z,12.48
2023-05-13T03:48:59.524Z,12.50
2023-05-13T03:49:30.885Z,9.52
2023-05-13T03:50:02.232Z,9.23
2023-05-13T03:50:33.586Z,10.50
2023-05-13T03:51:04.942Z,9.18
2023-05-13T03:51:36.308Z,8.88
2023-05-13T03:52:07.655Z,9.55
2023-05-13T03:52:39.003Z,11.95
2023-05-13T03:53:10.566Z,8.13
2023-05-13T03:53:41.946Z,11.38
2023-05-13T03:54:13.302Z,11.05
2023-05-13T03:54:44.675Z,10.75
2023-05-13T03:55:16.033Z,12.60
2023-05-13T03:55:47.366Z,14.65
2023-05-13T03:56:18.765Z,9.33
2023-05-13T03:56:50.104Z,10.57
2023-05-13T03:57:21.462Z,11.55
2023-05-13T03:57:52.791Z,10.65
2023-05-13T03:58:24.116Z,10.32
2023-05-13T03:58:55.480Z,11.38
2023-05-13T03:59:26.791Z,12.10
2023-05-13T03:59:58.130Z,15.27
2023-05-13T04:00:29.491Z,11.43
2023-05-13T04:01:00.837Z,11.05
2023-05-13T04:01:32.221Z,12.50
2023-05-13T04:02:03.668Z,10.70
2023-05-13T04:02:35.100Z,11.70
2023-05-13T04:03:06.539Z,7.95
2023-05-13T04:03:37.894Z,12.05
2023-05-13T04:04:09.244Z,9.65
2023-05-13T04:04:40.612Z,12.02
2023-05-13T04:05:12.125Z,9.35
2023-05-13T04:05:44.499Z,8.98
2023-05-13T04:06:15.855Z,12.18
2023-05-13T04:06:47.227Z,10.63
2023-05-13T04:07:18.580Z,13.00
2023-05-13T04:07:49.930Z,12.45
2023-05-13T04:08:21.285Z,9.75
2023-05-13T04:08:52.685Z,9.17
2023-05-13T04:09:24.014Z,11.85
2023-05-13T04:09:55.355Z,8.13
2023-05-13T04:10:26.752Z,8.02
2023-05-13T04:10:58.105Z,10.18
2023-05-13T04:11:29.386Z,11.52
2023-05-13T04:12:00.735Z,9.57
2023-05-13T04:12:32.095Z,10.73
2023-05-13T04:13:03.522Z,9.40
2023-05-13T04:13:35.435Z,12.38
2023-05-13T04:14:06.779Z,9.02
2023-05-13T04:14:38.112Z,9.60
2023-05-13T04:15:09.655Z,7.90
2023-05-13T04:15:41.076Z,10.57
2023-05-13T04:16:12.439Z,9.80
2023-05-13T04:16:43.816Z,9.02
2023-05-13T04:17:15.229Z,12.25
2023-05-13T04:17:46.796Z,8.15
2023-05-13T04:18:18.182Z,9.43
2023-05-13T04:18:49.570Z,9.77
2023-05-13T04:19:20.992Z,9.95
2023-05-13T04:19:52.983Z,9.15
2023-05-13T04:20:24.830Z,9.13
2023-05-13T04:20:56.230Z,11.98
2023-05-13T04:21:27.681Z,18.07
2023-05-13T04:21:59.035Z,9.52
2023-05-13T04:22:30.424Z,13.27
2023-05-13T04:23:01.797Z,10.60
2023-05-13T04:23:33.296Z,14.07
2023-05-13T04:24:04.846Z,12.23
2023-05-13T04:24:36.254Z,11.10
2023-05-13T04:25:07.790Z,18.83
2023-05-13T04:25:39.199Z,11.55
2023-05-13T04:26:11.374Z,13.38
2023-05-13T04:26:42.779Z,14.18
2023-05-13T04:27:14.131Z,11.27
2023-05-13T04:27:45.527Z,12.40
2023-05-13T04:28:16.875Z,8.73
2023-05-13T04:28:48.207Z,8.82
2023-05-13T04:29:19.551Z,9.98
2023-05-13T04:29:50.936Z,8.95
2023-05-13T04:30:22.551Z,9.43
2023-05-13T04:30:54.089Z,8.02
2023-05-13T04:31:25.532Z,8.10
2023-05-13T04:31:56.964Z,8.15
2023-05-13T04:32:28.381Z,9.45
2023-05-13T04:32:59.750Z,10.30
2023-05-13T04:33:31.136Z,9.10
2023-05-13T04:34:02.500Z,7.72
2023-05-13T04:34:33.963Z,11.93
2023-05-13T04:35:06.981Z,7.18
2023-05-13T04:35:38.325Z,9.57
2023-05-13T04:36:09.777Z,8.45
2023-05-13T04:36:41.135Z,5.93
2023-05-13T04:37:12.472Z,8.88
2023-05-13T04:37:43.821Z,7.50
2023-05-13T04:38:15.197Z,9.20
2023-05-13T04:38:46.543Z,8.38
2023-05-13T04:39:17.879Z,10.82
2023-05-13T04:39:49.272Z,9.35
2023-05-13T04:40:20.852Z,8.82
2023-05-13T04:40:52.622Z,10.75
2023-05-13T04:41:24.009Z,12.48
2023-05-13T04:41:55.351Z,15.25
2023-05-13T04:42:27.080Z,27.07
2023-05-13T04:42:58.411Z,37.58
2023-05-13T04:43:29.755Z,24.05
2023-05-13T04:44:01.099Z,16.23
2023-05-13T04:44:32.426Z,11.13
2023-05-13T04:45:03.929Z,12.50
2023-05-13T04:45:35.290Z,6.45
2023-05-13T04:46:06.641Z,7.82
2023-05-13T04:46:38.298Z,9.18
2023-05-13T04:47:09.685Z,7.15
2023-05-13T04:47:41.062Z,8.60
2023-05-13T04:48:12.506Z,7.13
2023-05-13T04:48:43.875Z,9.77
2023-05-13T04:49:15.518Z,10.23
2023-05-13T04:49:47.360Z,6.22
2023-05-13T04:50:19.165Z,7.50
2023-05-13T04:50:50.825Z,7.05
2023-05-13T04:51:22.681Z,8.02
2023-05-13T04:51:54.756Z,6.95
2023-05-13T04:52:26.627Z,4.97
2023-05-13T04:52:58.065Z,5.60
2023-05-13T04:53:29.388Z,6.22
2023-05-13T04:54:00.811Z,7.35
2023-05-13T04:54:32.565Z,8.40
2023-05-13T04:55:04.045Z,9.93
2023-05-13T04:55:35.432Z,7.82
2023-05-13T04:56:06.932Z,9.68
2023-05-13T04:56:38.272Z,6.33
2023-05-13T04:57:09.679Z,7.18
2023-05-13T04:57:41.032Z,7.25
2023-05-13T04:58:12.364Z,8.82
2023-05-13T04:58:43.749Z,7.10
2023-05-13T04:59:15.246Z,6.18
2023-05-13T04:59:46.647Z,8.20
2023-05-13T05:00:18.141Z,6.35
2023-05-13T05:00:49.534Z,7.35
2023-05-13T05:01:20.919Z,9.20
2023-05-13T05:01:52.365Z,8.03
2023-05-13T05:02:23.781Z,7.15
2023-05-13T05:02:55.211Z,8.43
2023-05-13T05:03:26.670Z,6.65
2023-05-13T05:03:58.212Z,8.30
2023-05-13T05:04:29.622Z,9.15
2023-05-13T05:05:00.992Z,5.68
2023-05-13T05:05:32.393Z,6.72
2023-05-13T05:06:03.769Z,4.80
2023-05-13T05:06:35.162Z,5.67
2023-05-13T05:07:06.511Z,5.82
2023-05-13T05:07:37.898Z,7.60
2023-05-13T05:08:09.292Z,5.10
2023-05-13T05:08:40.632Z,5.53
2023-05-13T05:09:11.962Z,6.47
2023-05-13T05:09:43.367Z,6.72
2023-05-13T05:10:14.715Z,6.40
2023-05-13T05:10:46.090Z,4.88
2023-05-13T05:11:17.480Z,4.90
2023-05-13T05:11:48.864Z,6.28
2023-05-13T05:12:20.230Z,6.57
2023-05-13T05:12:51.592Z,5.20
2023-05-13T05:13:22.941Z,5.07
2023-05-13T05:13:54.290Z,6.75
2023-05-13T05:14:25.624Z,6.53
2023-05-13T05:14:56.954Z,5.25
2023-05-13T05:15:28.294Z,5.35
2023-05-13T05:15:59.714Z,6.20
2023-05-13T05:16:31.060Z,7.43
2023-05-13T05:17:02.423Z,6.55
2023-05-13T05:17:33.929Z,7.30
2023-05-13T05:18:05.581Z,7.53
2023-05-13T05:18:37.022Z,7.00
2023-05-13T05:19:08.495Z,6.80
2023-05-13T05:19:40.079Z,7.95
2023-05-13T05:20:11.619Z,5.20
2023-05-13T05:20:43.014Z,6.95
2023-05-13T05:21:14.392Z,6.55
2023-05-13T05:21:45.727Z,6.60
2023-05-13T05:22:17.057Z,8.82
2023-05-13T05:22:48.406Z,8.38
2023-05-13T05:23:19.893Z,4.97
2023-05-13T05:23:51.236Z,6.63
2023-05-13T05:24:22.569Z,10.63
2023-05-13T05:24:53.943Z,7.03
2023-05-13T05:25:25.307Z,5.90
2023-05-13T05:26:07.840Z,4.18
2023-05-13T05:26:42.971Z,6.05
2023-05-13T05:27:14.338Z,5.35
2023-05-13T05:27:45.714Z,5.28
2023-05-13T05:28:17.160Z,6.63
2023-05-13T05:28:48.522Z,5.38
2023-05-13T05:29:19.883Z,6.20
2023-05-13T05:29:51.305Z,4.97
2023-05-13T05:30:22.961Z,5.03
2023-05-13T05:30:54.619Z,4.32
2023-05-13T05:31:26.018Z,3.90
2023-05-13T05:31:57.732Z,5.75
2023-05-13T05:32:29.288Z,5.70
2023-05-13T05:33:00.723Z,7.10
2023-05-13T05:33:34.758Z,5.53
2023-05-13T05:34:06.127Z,6.43
2023-05-13T05:34:37.499Z,4.50
2023-05-13T05:35:09.138Z,5.15
2023-05-13T05:35:40.604Z,7.05
2023-05-13T05:36:11.985Z,4.75
2023-05-13T05:36:43.345Z,6.65
2023-05-13T05:37:14.805Z,6.35
2023-05-13T05:37:46.146Z,5.82
2023-05-13T05:38:17.560Z,5.53
2023-05-13T05:38:48.946Z,4.72
2023-05-13T05:39:20.291Z,5.80
2023-05-13T05:39:51.645Z,5.50
2023-05-13T05:40:23.321Z,5.43
2023-05-13T05:40:55.106Z,5.47
2023-05-13T05:41:26.564Z,6.40
2023-05-13T05:41:57.906Z,4.47
2023-05-13T05:42:29.251Z,4.28
2023-05-13T05:43:00.728Z,5.05
2023-05-13T05:43:32.161Z,5.47
2023-05-13T05:44:03.569Z,5.32
2023-05-13T05:44:34.907Z,4.60
2023-05-13T05:45:06.512Z,4.95
2023-05-13T05:45:38.330Z,3.95
2023-05-13T05:46:09.724Z,4.47
2023-05-13T05:46:41.144Z,5.15
2023-05-13T05:47:12.494Z,3.28
2023-05-13T05:47:43.866Z,4.97
2023-05-13T05:48:15.270Z,4.07
2023-05-13T05:48:46.823Z,3.95
2023-05-13T05:49:18.193Z,4.20
2023-05-13T05:49:49.684Z,4.97
2023-05-13T05:50:21.402Z,2.58
2023-05-13T05:50:52.896Z,2.92
2023-05-13T05:51:24.227Z,3.97
2023-05-13T05:51:55.556Z,4.43
2023-05-13T05:52:26.924Z,4.40
2023-05-13T05:52:58.303Z,4.28
2023-05-13T05:53:29.677Z,4.07
2023-05-13T05:54:01.436Z,4.40
2023-05-13T05:54:32.796Z,6.00
2023-05-13T05:55:04.254Z,3.53
2023-05-13T05:55:35.622Z,3.67
2023-05-13T05:56:07.060Z,4.05
2023-05-13T05:56:38.397Z,4.55
2023-05-13T05:57:09.753Z,3.00
2023-05-13T05:57:41.082Z,3.17
2023-05-13T05:58:14.703Z,8.73
2023-05-13T05:58:46.033Z,4.60
2023-05-13T05:59:17.429Z,2.63
2023-05-13T05:59:48.803Z,4.75
2023-05-13T06:00:20.536Z,5.85
2023-05-13T06:00:52.125Z,2.42
2023-05-13T06:01:23.522Z,4.40
2023-05-13T06:01:54.864Z,4.30
2023-05-13T06:02:26.318Z,6.50
2023-05-13T06:02:57.886Z,1.98
2023-05-13T06:03:29.374Z,4.13
2023-05-13T06:04:00.919Z,4.72
2023-05-13T06:04:32.346Z,4.00
2023-05-13T06:05:03.864Z,4.50
2023-05-13T06:05:35.196Z,5.50
2023-05-13T06:06:06.628Z,5.72
2023-05-13T06:06:38.019Z,8.38
2023-05-13T06:07:09.504Z,3.38
2023-05-13T06:07:40.946Z,3.30
2023-05-13T06:08:12.295Z,2.63
2023-05-13T06:08:43.630Z,3.83
2023-05-13T06:09:14.972Z,4.72
2023-05-13T06:09:46.363Z,4.80
2023-05-13T06:10:17.738Z,3.45
2023-05-13T06:10:49.089Z,3.33
2023-05-13T06:11:20.454Z,5.50
2023-05-13T06:11:51.805Z,4.57
2023-05-13T06:12:23.210Z,6.30
2023-05-13T06:12:54.558Z,5.93
2023-05-13T06:13:25.973Z,4.07
2023-05-13T06:13:57.360Z,6.27
2023-05-13T06:14:28.752Z,4.60
2023-05-13T06:15:00.821Z,3.80
2023-05-13T06:15:32.522Z,4.40
2023-05-13T06:16:04.174Z,3.55
2023-05-13T06:16:35.647Z,5.07
2023-05-13T06:17:07.081Z,6.07
2023-05-13T06:17:38.681Z,5.47
2023-05-13T06:18:10.123Z,4.85
2023-05-13T06:18:41.520Z,3.33
2023-05-13T06:19:12.994Z,4.00
2023-05-13T06:19:44.384Z,4.72
2023-05-13T06:20:15.720Z,3.07
2023-05-13T06:20:47.092Z,3.15
2023-05-13T06:21:18.451Z,3.67
2023-05-13T06:21:49.787Z,4.43
2023-05-13T06:22:21.150Z,5.10
2023-05-13T06:22:52.506Z,4.75
2023-05-13T06:23:23.870Z,3.05
2023-05-13T06:23:55.185Z,5.22
2023-05-13T06:24:26.551Z,3.53
2023-05-13T06:24:57.956Z,3.47
2023-05-13T06:25:29.351Z,5.53
2023-05-13T06:26:00.703Z,9.27
2023-05-13T06:26:32.067Z,3.92
2023-05-13T06:27:03.546Z,2.38
2023-05-13T06:27:36.177Z,3.53
2023-05-13T06:28:07.560Z,4.88
2023-05-13T06:28:38.902Z,3.22
2023-05-13T06:29:10.274Z,9.33
2023-05-13T06:29:41.671Z,5.57
2023-05-13T06:30:13.121Z,5.63
2023-05-13T06:30:45.013Z,4.70
2023-05-13T06:31:17.188Z,6.03
2023-05-13T06:31:48.664Z,3.75
2023-05-13T06:32:20.126Z,3.42
2023-05-13T06:33:01.034Z,5.18
2023-05-13T06:33:33.756Z,4.97
2023-05-13T06:34:05.195Z,3.23
2023-05-13T06:34:36.591Z,5.70
2023-05-13T06:35:08.090Z,5.05
2023-05-13T06:35:39.451Z,4.85
2023-05-13T06:36:10.802Z,5.15
2023-05-13T06:36:42.847Z,5.90
2023-05-13T06:37:14.205Z,5.30
2023-05-13T06:37:45.535Z,4.07
2023-05-13T06:38:16.927Z,4.13
2023-05-13T06:38:48.264Z,2.78
2023-05-13T06:39:19.625Z,6.03
2023-05-13T06:39:51.008Z,5.35
2023-05-13T06:40:22.724Z,8.38
2023-05-13T06:40:54.393Z,8.57
2023-05-13T06:41:25.750Z,4.65
2023-05-13T06:41:57.104Z,6.18
2023-05-13T06:42:28.484Z,5.43
2023-05-13T06:42:59.821Z,5.13
2023-05-13T06:43:31.165Z,2.67
2023-05-13T06:44:02.529Z,3.30
2023-05-13T06:44:33.890Z,4.35
2023-05-13T06:45:05.683Z,7.25
2023-05-13T06:45:37.030Z,4.10
2023-05-13T06:46:08.424Z,2.95
2023-05-13T06:46:39.955Z,7.72
2023-05-13T06:47:11.428Z,4.18
2023-05-13T06:47:42.896Z,4.70
2023-05-13T06:48:14.311Z,3.40
2023-05-13T06:48:45.790Z,3.07
2023-05-13T06:49:17.147Z,3.22
2023-05-13T06:49:48.467Z,2.83
2023-05-13T06:50:20.315Z,3.85
2023-05-13T06:50:51.936Z,3.50
2023-05-13T06:51:23.508Z,4.28
2023-05-13T06:51:56.710Z,2.97
2023-05-13T06:52:28.052Z,3.97
2023-05-13T06:52:59.444Z,7.72
2023-05-13T06:53:30.891Z,3.38
2023-05-13T06:54:02.229Z,4.50
2023-05-13T06:54:33.563Z,3.22
2023-05-13T06:55:05.140Z,4.93
2023-05-13T06:55:36.502Z,3.92
2023-05-13T06:56:07.887Z,3.95
2023-05-13T06:56:39.281Z,3.08
2023-05-13T06:57:10.622Z,4.78
2023-05-13T06:57:43.317Z,4.68
2023-05-13T06:58:15.114Z,2.65
2023-05-13T06:58:46.524Z,3.25
2023-05-13T06:59:17.887Z,4.85
2023-05-13T06:59:49.261Z,3.95
2023-05-13T07:00:20.968Z,4.35
2023-05-13T07:00:52.559Z,5.60